Time;durP1;ratioP1;P1;durP2;ratioP2;P2;SDS_P1;SDS_P2;PMS_P1;PMS_P2;Temp;Humidity;BMP_temperature;BMP_pressure;BME280_temperature;BME280_humidity;BME280_pressure;Samples;Min_cycle;Max_cycle;Signal;HPM_P1;HPM_P2
2022/05/01 00:02:07;;;;;;;16.07;11.97;;;6.60;99.90;;;;;;5074852;28;20244;-63
2022/05/01 00:04:33;;;;;;;17.87;12.53;;;6.50;99.90;;;;;;5076301;28;20285;-63
2022/05/01 00:06:59;;;;;;;19.03;12.77;;;6.40;99.90;;;;;;5076274;28;20186;-64
2022/05/01 00:09:25;;;;;;;19.57;12.50;;;6.30;99.90;;;;;;5074845;28;20275;-63
2022/05/01 00:11:51;;;;;;;19.50;12.73;;;6.30;99.90;;;;;;5076091;28;20251;-64
2022/05/01 00:14:17;;;;;;;17.80;12.97;;;6.40;99.90;;;;;;5074880;28;20221;-64
2022/05/01 00:16:43;;;;;;;19.63;13.67;;;6.30;99.90;;;;;;5075803;28;20174;-63
2022/05/01 00:19:08;;;;;;;22.20;12.50;;;6.30;99.90;;;;;;5076056;28;20193;-64
2022/05/01 00:21:35;;;;;;;18.17;12.90;;;6.30;99.90;;;;;;5074739;28;20272;-63
2022/05/01 00:24:01;;;;;;;18.03;12.73;;;6.30;99.90;;;;;;5076019;28;20208;-63
2022/05/01 00:26:27;;;;;;;20.07;13.20;;;6.30;99.90;;;;;;5075903;28;20170;-63
2022/05/01 00:28:53;;;;;;;18.87;12.93;;;6.30;99.90;;;;;;5076542;28;20511;-64
2022/05/01 00:31:19;;;;;;;17.90;12.13;;;6.30;99.90;;;;;;5075477;28;20180;-62
2022/05/01 00:36:29;;;;;;;17.07;13.13;;;6.10;99.90;;;;;;5075676;28;20216;-63
2022/05/01 00:38:56;;;;;;;17.70;12.77;;;6.10;99.90;;;;;;5075600;28;20182;-63
2022/05/01 00:41:23;;;;;;;20.23;13.43;;;6.00;99.90;;;;;;5073452;28;20189;-64
2022/05/01 00:44:05;;;;;;;20.73;13.07;;;5.90;99.90;;;;;;5075657;28;20204;-64
2022/05/01 00:46:36;;;;;;;22.97;14.00;;;5.90;99.90;;;;;;5073887;28;20173;-64
2022/05/01 00:49:04;;;;;;;18.97;14.27;;;5.90;99.90;;;;;;5075909;28;20576;-64
2022/05/01 00:51:33;;;;;;;16.10;13.00;;;6.00;99.90;;;;;;5075664;28;20178;-63
2022/05/01 00:53:59;;;;;;;17.10;13.30;;;5.90;99.90;;;;;;5075591;28;20209;-64
2022/05/01 00:56:26;;;;;;;20.37;14.03;;;5.90;99.90;;;;;;5075271;28;20545;-64
2022/05/01 00:58:52;;;;;;;21.30;13.43;;;5.90;99.90;;;;;;5075567;28;20180;-64
2022/05/01 01:01:19;;;;;;;18.60;13.73;;;5.90;99.90;;;;;;5075168;28;20173;-64
2022/05/01 01:03:45;;;;;;;20.27;13.83;;;5.90;99.90;;;;;;5074037;28;20662;-64
2022/05/01 01:06:11;;;;;;;16.73;12.97;;;5.80;99.90;;;;;;5075429;28;20180;-64
2022/05/01 01:08:37;;;;;;;18.13;12.53;;;5.80;99.90;;;;;;5075149;28;20197;-64
2022/05/01 01:11:03;;;;;;;17.43;12.43;;;5.80;99.90;;;;;;5073455;28;20258;-64
2022/05/01 01:13:29;;;;;;;20.57;12.20;;;5.70;99.90;;;;;;5073373;28;20300;-64
2022/05/01 01:15:56;;;;;;;18.53;12.03;;;5.70;99.90;;;;;;5073546;28;20178;-63
2022/05/01 01:18:23;;;;;;;17.60;12.07;;;5.70;99.90;;;;;;5074556;28;20213;-64
2022/05/01 01:20:51;;;;;;;16.93;12.97;;;5.80;99.90;;;;;;5074864;28;20522;-63
2022/05/01 01:23:16;;;;;;;17.90;12.53;;;5.80;99.90;;;;;;5073340;28;20201;-64
2022/05/01 01:25:42;;;;;;;19.67;12.60;;;5.90;99.90;;;;;;5073451;28;20181;-64
2022/05/01 01:28:08;;;;;;;16.37;12.00;;;5.90;99.90;;;;;;5074576;28;20174;-64
2022/05/01 01:33:21;;;;;;;16.60;11.77;;;5.90;99.90;;;;;;5074133;28;20212;-63
2022/05/01 01:35:49;;;;;;;15.77;11.63;;;5.80;99.90;;;;;;5074364;28;20177;-64
2022/05/01 01:38:16;;;;;;;17.77;12.07;;;5.80;99.90;;;;;;5073118;28;20174;-63
2022/05/01 01:40:48;;;;;;;16.73;12.30;;;5.70;99.90;;;;;;5074511;28;20249;-63
2022/05/01 01:43:18;;;;;;;18.50;13.37;;;5.60;99.90;;;;;;5074480;28;20190;-63
2022/05/01 01:45:46;;;;;;;17.27;11.47;;;5.60;99.90;;;;;;5074787;28;20228;-63
2022/05/01 01:48:16;;;;;;;17.87;12.70;;;5.50;99.90;;;;;;5073857;28;20215;-63
2022/05/01 01:50:43;;;;;;;18.20;12.83;;;5.40;99.90;;;;;;5074615;28;20180;-64
2022/05/01 01:53:11;;;;;;;15.50;12.23;;;5.40;99.90;;;;;;5074539;28;20280;-64
2022/05/01 01:55:38;;;;;;;18.67;12.13;;;5.30;99.90;;;;;;5074322;28;20225;-64
2022/05/01 01:58:05;;;;;;;17.37;12.07;;;5.20;99.90;;;;;;5074617;28;20642;-64
2022/05/01 02:00:32;;;;;;;19.03;12.60;;;5.30;99.90;;;;;;5074431;28;20174;-64
2022/05/01 02:03:03;;;;;;;17.00;12.07;;;5.30;99.90;;;;;;5074332;28;20170;-64
2022/05/01 02:05:30;;;;;;;16.60;12.47;;;5.20;99.90;;;;;;5074183;28;20677;-64
2022/05/01 02:07:56;;;;;;;17.60;12.60;;;5.30;99.90;;;;;;5074237;28;20178;-63
2022/05/01 02:10:22;;;;;;;17.30;12.77;;;5.30;99.90;;;;;;5074274;28;20182;-63
2022/05/01 02:12:48;;;;;;;18.37;12.43;;;5.30;99.90;;;;;;5074412;28;20216;-63
2022/05/01 02:15:15;;;;;;;17.43;11.73;;;5.40;99.90;;;;;;5072858;28;20580;-64
2022/05/01 02:17:41;;;;;;;19.80;12.50;;;5.40;99.90;;;;;;5073820;28;20153;-64
2022/05/01 02:20:08;;;;;;;20.27;12.93;;;5.40;99.90;;;;;;5074120;28;20223;-63
2022/05/01 02:22:41;;;;;;;15.07;12.17;;;5.30;99.90;;;;;;5074082;28;20181;-63
2022/05/01 02:25:10;;;;;;;16.17;12.67;;;5.30;99.90;;;;;;5074152;28;20614;-63
2022/05/01 02:27:39;;;;;;;18.73;13.27;;;5.40;99.90;;;;;;5073958;28;20257;-64
2022/05/01 02:30:07;;;;;;;17.37;13.23;;;5.30;99.90;;;;;;5073796;28;20201;-63
2022/05/01 02:32:36;;;;;;;19.60;12.93;;;5.40;99.90;;;;;;5073388;28;20675;-63
2022/05/01 02:35:02;;;;;;;16.80;12.60;;;5.40;99.90;;;;;;5073520;28;20197;-64
2022/05/01 02:37:28;;;;;;;19.60;13.57;;;5.30;99.90;;;;;;5073598;28;20181;-63
2022/05/01 02:39:54;;;;;;;18.57;13.03;;;5.30;99.90;;;;;;5073877;28;20178;-63
2022/05/01 02:42:19;;;;;;;16.20;12.33;;;5.30;99.90;;;;;;5073921;28;20169;-63
2022/05/01 02:44:45;;;;;;;16.93;12.50;;;5.30;99.90;;;;;;5073935;28;20193;-63
2022/05/01 02:47:11;;;;;;;16.63;12.33;;;5.30;99.90;;;;;;5073577;28;20182;-63
2022/05/01 02:49:37;;;;;;;16.30;11.93;;;5.30;99.90;;;;;;5073629;28;20177;-63
2022/05/01 02:52:03;;;;;;;16.63;11.93;;;5.30;99.90;;;;;;5073558;28;20170;-63
2022/05/01 02:54:29;;;;;;;17.90;12.37;;;5.30;99.90;;;;;;5073387;28;20208;-63
2022/05/01 02:56:55;;;;;;;16.03;12.07;;;5.20;99.90;;;;;;5073463;28;20535;-63
2022/05/01 02:59:20;;;;;;;15.80;12.43;;;5.00;99.90;;;;;;5073789;28;20261;-64
2022/05/01 03:01:46;;;;;;;13.87;11.47;;;4.90;99.90;;;;;;5072073;28;20181;-62
2022/05/01 03:04:12;;;;;;;16.93;12.17;;;4.90;99.90;;;;;;5075942;28;20670;-64
2022/05/01 03:06:38;;;;;;;15.67;11.43;;;4.80;99.90;;;;;;5077854;28;20177;-64
2022/05/01 03:09:04;;;;;;;17.00;11.83;;;4.80;99.90;;;;;;5077203;28;20196;-63
2022/05/01 03:11:32;;;;;;;15.93;12.53;;;4.80;99.90;;;;;;5077396;28;20257;-64
2022/05/01 03:13:58;;;;;;;17.17;12.83;;;4.70;99.90;;;;;;5077392;28;20194;-63
2022/05/01 03:16:24;;;;;;;15.13;12.00;;;4.70;99.90;;;;;;5077203;28;20559;-63
2022/05/01 03:24:18;;;;;;;13.60;10.53;;;4.80;99.90;;;;;;5077397;28;20247;-63
2022/05/01 03:26:47;;;;;;;13.50;10.93;;;4.80;99.90;;;;;;5077024;28;20178;-63
2022/05/01 03:29:13;;;;;;;14.97;11.60;;;4.80;99.90;;;;;;5077408;28;20170;-63
2022/05/01 03:31:39;;;;;;;14.93;11.27;;;4.80;99.90;;;;;;5077874;28;20177;-63
2022/05/01 03:34:06;;;;;;;17.10;11.83;;;4.90;99.90;;;;;;5077288;28;20206;-63
2022/05/01 03:36:32;;;;;;;18.27;12.07;;;5.00;99.90;;;;;;5077713;28;20165;-63
2022/05/01 03:38:59;;;;;;;19.70;13.30;;;5.00;99.90;;;;;;5077168;28;20178;-63
2022/05/01 03:41:26;;;;;;;15.73;12.20;;;5.00;99.90;;;;;;5075439;28;20178;-63
2022/05/01 03:43:52;;;;;;;18.50;13.17;;;5.10;99.90;;;;;;5076720;28;20212;-63
2022/05/01 03:46:22;;;;;;;18.37;12.67;;;5.10;99.90;;;;;;5076692;28;20174;-63
2022/05/01 03:48:48;;;;;;;18.77;13.10;;;5.10;99.90;;;;;;5076587;28;20174;-63
2022/05/01 03:51:14;;;;;;;19.20;13.20;;;5.10;99.90;;;;;;5076555;28;20238;-63
2022/05/01 03:53:39;;;;;;;17.93;14.13;;;5.10;99.90;;;;;;5076302;28;20616;-64
2022/05/01 03:56:05;;;;;;;18.17;13.93;;;5.10;99.90;;;;;;5076736;28;20178;-63
2022/05/01 03:58:32;;;;;;;18.67;12.97;;;5.20;99.90;;;;;;5076604;28;20544;-63
2022/05/01 04:00:58;;;;;;;15.30;12.10;;;5.30;99.90;;;;;;5076451;28;20598;-63
2022/05/01 04:03:25;;;;;;;15.60;12.07;;;5.30;99.90;;;;;;5076206;28;20217;-63
2022/05/01 04:05:51;;;;;;;16.13;12.47;;;5.30;99.90;;;;;;5076320;28;20253;-63
2022/05/01 04:08:17;;;;;;;21.17;12.50;;;5.20;99.90;;;;;;5076157;28;20181;-64
2022/05/01 04:10:44;;;;;;;19.63;13.37;;;5.10;99.90;;;;;;5076016;28;20185;-63
2022/05/01 04:13:12;;;;;;;17.17;12.57;;;5.20;99.90;;;;;;5076032;28;20197;-63
2022/05/01 04:15:38;;;;;;;20.83;12.73;;;5.20;99.90;;;;;;5074696;28;20676;-63
2022/05/01 04:18:05;;;;;;;18.13;13.10;;;5.10;99.90;;;;;;5074719;28;20178;-63
2022/05/01 04:20:32;;;;;;;19.50;12.87;;;5.10;99.90;;;;;;5076217;28;20170;-63
2022/05/01 04:22:59;;;;;;;17.30;13.07;;;5.20;99.90;;;;;;5075928;28;20162;-64
2022/05/01 04:25:27;;;;;;;17.13;13.43;;;5.30;99.90;;;;;;5076522;28;20589;-64
2022/05/01 04:27:57;;;;;;;18.17;13.57;;;5.30;99.90;;;;;;5076520;28;20637;-63
2022/05/01 04:30:26;;;;;;;18.27;13.57;;;5.30;99.90;;;;;;5074599;28;20178;-63
2022/05/01 04:33:07;;;;;;;19.73;14.73;;;5.20;99.90;;;;;;5074296;28;20188;-63
2022/05/01 04:35:40;;;;;;;16.57;13.70;;;5.20;99.90;;;;;;5074536;28;20255;-64
2022/05/01 04:38:09;;;;;;;18.93;13.30;;;5.20;99.90;;;;;;5075769;28;20181;-63
2022/05/01 04:40:38;;;;;;;16.13;12.87;;;5.20;99.90;;;;;;5075716;28;20192;-64
2022/05/01 04:43:09;;;;;;;15.93;12.50;;;5.20;99.90;;;;;;5076308;28;20512;-63
2022/05/01 04:45:36;;;;;;;18.97;13.30;;;5.30;99.90;;;;;;5075581;28;20173;-64
2022/05/01 04:48:03;;;;;;;19.00;14.00;;;5.30;99.90;;;;;;5075490;28;20174;-64
2022/05/01 04:50:29;;;;;;;18.27;14.13;;;5.30;99.90;;;;;;5075540;28;20178;-64
2022/05/01 04:52:55;;;;;;;19.73;12.93;;;5.40;99.90;;;;;;5075280;28;20177;-64
2022/05/01 04:55:21;;;;;;;19.23;13.20;;;5.50;99.90;;;;;;5075373;28;20194;-64
2022/05/01 04:57:47;;;;;;;20.27;14.07;;;5.50;99.90;;;;;;5075670;28;20174;-64
2022/05/01 05:00:22;;;;;;;18.83;13.30;;;5.60;99.90;;;;;;5075639;28;20170;-64
2022/05/01 05:02:51;;;;;;;18.63;13.47;;;5.60;99.90;;;;;;5075249;28;20579;-64
2022/05/01 05:05:17;;;;;;;22.00;14.67;;;5.80;99.90;;;;;;5075242;28;20627;-64
2022/05/01 05:07:43;;;;;;;21.07;14.73;;;5.90;99.90;;;;;;5075266;28;20658;-64
2022/05/01 05:10:10;;;;;;;18.50;13.20;;;5.90;99.90;;;;;;5074965;28;20220;-64
2022/05/01 05:12:37;;;;;;;16.27;13.03;;;5.80;99.90;;;;;;5075358;28;20582;-63
2022/05/01 05:15:07;;;;;;;21.00;14.50;;;5.80;99.90;;;;;;5074802;28;20201;-64
2022/05/01 05:17:33;;;;;;;20.87;14.33;;;5.80;99.90;;;;;;5074730;28;20174;-64
2022/05/01 05:20:00;;;;;;;17.80;13.57;;;5.80;99.90;;;;;;5075013;28;20197;-63
2022/05/01 05:22:26;;;;;;;20.50;13.57;;;6.00;99.90;;;;;;5074303;28;20170;-64
2022/05/01 05:24:52;;;;;;;19.53;14.43;;;6.10;99.90;;;;;;5074284;28;20269;-63
2022/05/01 05:27:20;;;;;;;18.73;14.00;;;6.20;99.90;;;;;;5074175;28;20679;-63
2022/05/01 05:29:47;;;;;;;21.10;13.43;;;6.20;99.90;;;;;;5074620;28;20582;-63
2022/05/01 05:32:13;;;;;;;21.83;14.00;;;6.30;99.90;;;;;;5073363;28;20200;-63
2022/05/01 05:34:39;;;;;;;24.87;15.10;;;6.40;99.90;;;;;;5075370;28;20677;-63
2022/05/01 05:37:06;;;;;;;20.63;13.60;;;6.40;99.90;;;;;;5074062;28;20642;-63
2022/05/01 05:39:32;;;;;;;21.47;14.37;;;6.50;99.90;;;;;;5075113;28;20215;-63
2022/05/01 05:41:57;;;;;;;21.07;14.47;;;6.60;99.90;;;;;;5075773;28;20173;-63
2022/05/01 05:44:23;;;;;;;17.57;13.77;;;6.70;99.90;;;;;;5074991;28;20194;-63
2022/05/01 05:46:49;;;;;;;20.20;13.67;;;6.80;99.90;;;;;;5074574;28;20708;-64
2022/05/01 05:49:14;;;;;;;23.40;14.97;;;6.80;99.90;;;;;;5074103;28;20208;-63
2022/05/01 05:51:40;;;;;;;22.00;14.57;;;6.90;99.90;;;;;;5074117;28;20277;-63
2022/05/01 05:54:06;;;;;;;18.43;14.03;;;6.80;99.90;;;;;;5072736;28;20711;-63
2022/05/01 05:56:33;;;;;;;23.60;14.80;;;7.00;99.90;;;;;;5074115;28;20223;-63
2022/05/01 05:58:59;;;;;;;20.90;14.70;;;7.00;99.90;;;;;;5073985;28;20174;-64
2022/05/01 06:01:25;;;;;;;20.03;14.33;;;7.10;99.90;;;;;;5074372;28;20226;-63
2022/05/01 06:03:51;;;;;;;23.57;15.13;;;7.10;99.90;;;;;;5073582;28;20272;-63
2022/05/01 06:06:18;;;;;;;21.93;15.40;;;7.10;99.90;;;;;;5073890;28;20178;-63
2022/05/01 06:08:44;;;;;;;23.40;15.40;;;7.20;99.90;;;;;;5073812;28;20181;-63
2022/05/01 06:11:10;;;;;;;21.37;15.07;;;7.10;99.90;;;;;;5074253;28;20535;-63
2022/05/01 06:13:36;;;;;;;22.03;15.50;;;7.20;99.90;;;;;;5073958;28;20198;-63
2022/05/01 06:16:02;;;;;;;21.27;14.97;;;7.30;99.90;;;;;;5073992;28;20177;-63
2022/05/01 06:18:29;;;;;;;23.10;15.73;;;7.40;99.90;;;;;;5073607;28;20217;-63
2022/05/01 06:20:55;;;;;;;19.17;14.83;;;7.50;99.90;;;;;;5073540;28;20257;-64
2022/05/01 06:23:21;;;;;;;24.43;15.87;;;7.60;99.90;;;;;;5073560;28;20233;-63
2022/05/01 06:25:47;;;;;;;20.50;15.20;;;7.70;99.90;;;;;;5073463;28;20299;-63
2022/05/01 06:28:14;;;;;;;22.67;16.30;;;7.70;99.90;;;;;;5073491;28;20206;-63
2022/05/01 06:30:45;;;;;;;19.90;15.73;;;7.80;99.90;;;;;;5073487;28;20174;-63
2022/05/01 06:33:14;;;;;;;25.20;15.90;;;7.90;99.90;;;;;;5071967;28;20294;-63
2022/05/01 06:35:40;;;;;;;21.23;15.57;;;7.90;99.90;;;;;;5073377;28;20206;-63
2022/05/01 06:38:08;;;;;;;23.27;15.63;;;7.90;99.90;;;;;;5072418;28;20661;-63
2022/05/01 06:40:35;;;;;;;20.73;15.00;;;8.00;99.90;;;;;;5073353;28;20622;-63
2022/05/01 06:43:00;;;;;;;21.77;16.37;;;8.00;99.90;;;;;;5073547;28;20170;-63
2022/05/01 06:45:26;;;;;;;19.93;15.33;;;8.00;99.90;;;;;;5072033;28;20188;-63
2022/05/01 06:47:52;;;;;;;21.87;15.23;;;8.10;99.90;;;;;;5073038;28;20206;-63
2022/05/01 06:50:17;;;;;;;23.97;15.57;;;8.20;99.90;;;;;;5073258;28;20552;-63
2022/05/01 06:52:43;;;;;;;23.63;16.03;;;8.20;99.90;;;;;;5073791;28;20188;-63
2022/05/01 06:55:09;;;;;;;22.57;15.33;;;8.30;99.90;;;;;;5073268;28;20209;-64
2022/05/01 06:57:35;;;;;;;22.20;14.97;;;8.40;99.90;;;;;;5071836;28;20184;-63
2022/05/01 07:00:01;;;;;;;20.67;15.17;;;8.60;99.90;;;;;;5071936;28;20173;-64
2022/05/01 07:02:26;;;;;;;25.40;16.40;;;8.80;99.90;;;;;;5073108;28;20551;-63
2022/05/01 07:04:52;;;;;;;22.73;15.93;;;8.80;99.90;;;;;;5071486;28;20201;-63
2022/05/01 07:07:18;;;;;;;20.73;15.83;;;9.00;99.90;;;;;;5073350;28;20207;-63
2022/05/01 07:09:44;;;;;;;24.33;15.80;;;9.00;99.90;;;;;;5072941;28;20800;-63
2022/05/01 07:12:11;;;;;;;22.70;15.27;;;9.20;99.90;;;;;;5072973;28;20618;-63
2022/05/01 07:14:39;;;;;;;21.57;15.70;;;9.30;99.90;;;;;;5072894;28;20262;-63
2022/05/01 07:17:05;;;;;;;19.57;14.07;;;9.50;99.90;;;;;;5073293;28;20167;-63
2022/05/01 07:19:31;;;;;;;18.97;14.87;;;9.60;99.90;;;;;;5072736;28;20177;-63
2022/05/01 07:21:57;;;;;;;21.73;15.17;;;9.80;99.90;;;;;;5072889;28;20182;-63
2022/05/01 07:24:23;;;;;;;21.33;15.27;;;9.90;99.90;;;;;;5072963;28;20205;-64
2022/05/01 07:26:48;;;;;;;20.63;15.83;;;9.90;99.90;;;;;;5071635;28;20170;-64
2022/05/01 07:29:14;;;;;;;23.23;15.90;;;10.00;99.90;;;;;;5071671;28;20213;-63
2022/05/01 07:31:42;;;;;;;19.97;14.83;;;10.10;99.90;;;;;;5073669;28;20174;-63
2022/05/01 07:34:09;;;;;;;19.70;15.73;;;10.20;99.90;;;;;;5071381;28;20213;-63
2022/05/01 07:36:35;;;;;;;19.97;15.17;;;10.20;99.90;;;;;;5072793;28;20177;-63
2022/05/01 07:39:01;;;;;;;20.27;15.50;;;10.30;99.90;;;;;;5072785;28;20182;-63
2022/05/01 07:41:27;;;;;;;19.50;14.53;;;10.30;99.90;;;;;;5072886;28;20186;-64
2022/05/01 07:43:55;;;;;;;18.17;14.00;;;10.30;99.90;;;;;;5071559;28;20235;-63
2022/05/01 07:46:21;;;;;;;21.17;14.87;;;10.40;99.90;;;;;;5073092;28;20170;-64
2022/05/01 07:48:48;;;;;;;19.60;14.97;;;10.50;99.90;;;;;;5071301;28;20174;-64
2022/05/01 07:51:15;;;;;;;22.17;15.20;;;10.60;99.90;;;;;;5075066;28;20258;-64
2022/05/01 07:53:41;;;;;;;17.43;13.37;;;10.70;99.90;;;;;;5076153;28;20650;-64
2022/05/01 07:56:07;;;;;;;19.03;14.63;;;10.80;99.90;;;;;;5076298;28;20204;-64
2022/05/01 07:58:33;;;;;;;16.53;13.20;;;11.00;99.90;;;;;;5076309;28;20662;-64
2022/05/01 08:01:01;;;;;;;22.63;14.63;;;11.20;99.90;;;;;;5074955;28;20178;-64
2022/05/01 08:06:12;;;;;;;20.43;13.67;;;11.50;99.90;;;;;;5076672;28;20226;-63
2022/05/01 08:08:39;;;;;;;16.50;13.03;;;11.60;99.90;;;;;;5076000;28;20257;-64
2022/05/01 08:11:05;;;;;;;15.30;12.57;;;11.70;99.90;;;;;;5074588;28;20197;-64
2022/05/01 08:13:31;;;;;;;17.97;13.33;;;11.90;99.90;;;;;;5076115;28;20200;-63
2022/05/01 08:15:58;;;;;;;18.13;13.40;;;12.00;99.90;;;;;;5074613;28;20311;-64
2022/05/01 08:21:08;;;;;;;15.37;13.10;;;12.10;99.90;;;;;;5076371;28;20740;-64
2022/05/01 08:23:36;;;;;;;16.65;13.75;;;12.20;99.90;;;;;;5076370;28;20280;-64
2022/05/01 08:26:06;;;;;;;15.45;12.20;;;12.30;99.90;;;;;;5076352;28;20177;-64
2022/05/01 08:28:35;;;;;;;16.98;11.98;;;12.50;99.90;;;;;;5075820;28;20150;-64
2022/05/01 08:31:02;;;;;;;16.17;11.93;;;12.70;99.90;;;;;;5074335;28;20174;-64
2022/05/01 08:33:28;;;;;;;17.38;11.57;;;13.00;99.90;;;;;;5075511;28;20300;-64
2022/05/01 08:35:54;;;;;;;15.65;12.57;;;13.30;99.90;;;;;;5075412;28;20280;-64
2022/05/01 08:38:20;;;;;;;16.23;12.25;;;13.50;99.90;;;;;;5075378;28;20228;-64
2022/05/01 08:40:48;;;;;;;16.13;11.00;;;13.50;99.90;;;;;;5075629;28;20166;-67
2022/05/01 08:43:22;;;;;;;16.42;11.93;;;13.50;99.90;;;;;;5073964;28;20612;-66
2022/05/01 08:46:12;;;;;;;14.02;10.90;;;13.50;99.90;;;;;;5074092;28;20174;-63
2022/05/01 08:48:52;;;;;;;14.48;11.30;;;13.70;99.90;;;;;;5073743;28;20173;-66
2022/05/01 08:51:19;;;;;;;14.88;9.45;;;13.80;99.90;;;;;;5075624;28;20158;-63
2022/05/01 08:53:46;;;;;;;17.60;11.35;;;14.00;99.90;;;;;;5075337;28;20197;-64
2022/05/01 08:56:12;;;;;;;14.27;11.18;;;14.20;99.90;;;;;;5075411;28;20166;-66
2022/05/01 08:58:40;;;;;;;16.60;11.15;;;14.10;99.90;;;;;;5075024;28;20294;-64
2022/05/01 09:01:09;;;;;;;14.02;11.70;;;14.30;99.90;;;;;;5072992;28;20204;-64
2022/05/01 09:03:36;;;;;;;16.52;11.32;;;14.30;99.90;;;;;;5074589;28;20233;-64
2022/05/01 09:06:02;;;;;;;13.00;10.48;;;14.40;99.90;;;;;;5075216;28;20665;-64
2022/05/01 09:08:29;;;;;;;12.77;10.18;;;14.50;99.90;;;;;;5074785;28;20257;-64
2022/05/01 09:10:55;;;;;;;15.23;9.95;;;14.70;99.90;;;;;;5074679;28;20186;-64
2022/05/01 09:13:25;;;;;;;12.48;9.77;;;14.70;99.90;;;;;;5074748;28;20292;-64
2022/05/01 09:15:52;;;;;;;12.50;9.50;;;15.00;99.90;;;;;;5074610;28;20194;-64
2022/05/01 09:18:19;;;;;;;13.00;9.32;;;15.10;99.90;;;;;;5073258;28;20182;-64
2022/05/01 09:21:04;;;;;;;11.68;8.65;;;15.30;99.90;;;;;;5074910;28;20155;-64
2022/05/01 09:23:42;;;;;;;11.43;9.00;;;15.50;99.90;;;;;;5074769;28;20193;-64
2022/05/01 09:26:09;;;;;;;10.40;8.75;;;15.60;99.90;;;;;;5074456;28;20571;-64
2022/05/01 09:28:36;;;;;;;9.77;8.63;;;15.70;99.90;;;;;;5074402;28;20626;-65
2022/05/01 09:31:05;;;;;;;11.15;8.43;;;15.90;99.90;;;;;;5074361;28;20173;-64
2022/05/01 09:33:30;;;;;;;8.88;7.35;;;16.00;99.90;;;;;;5074127;28;20201;-64
2022/05/01 09:35:56;;;;;;;11.13;8.45;;;16.20;99.90;;;;;;5074201;28;20201;-64
2022/05/01 09:38:24;;;;;;;8.80;7.30;;;16.30;99.90;;;;;;5074550;28;20315;-65
2022/05/01 09:40:55;;;;;;;8.95;7.80;;;16.40;99.90;;;;;;5073145;28;20181;-65
2022/05/01 09:43:43;;;;;;;9.73;7.30;;;16.30;99.90;;;;;;5073251;28;20197;-65
2022/05/01 09:46:33;;;;;;;9.18;6.93;;;16.20;99.90;;;;;;5075441;28;20232;-71
2022/05/01 09:49:05;;;;;;;7.95;5.40;;;16.00;99.90;;;;;;5074373;28;20188;-70
2022/05/01 09:51:33;;;;;;;7.10;5.60;;;16.10;99.90;;;;;;5074930;28;20177;-70
2022/05/01 09:54:00;;;;;;;8.40;5.40;;;15.90;99.90;;;;;;5075005;28;20244;-70
2022/05/01 09:56:26;;;;;;;6.82;5.45;;;15.80;99.90;;;;;;5073589;28;20166;-70
2022/05/01 09:59:02;;;;;;;8.32;6.22;;;15.80;99.90;;;;;;5073525;28;20261;-70
2022/05/01 10:01:29;;;;;;;10.80;5.30;;;16.00;99.90;;;;;;5074843;28;20161;-71
2022/05/01 10:04:00;;;;;;;9.80;5.60;;;16.30;99.90;;;;;;5075148;28;20666;-70
2022/05/01 10:06:29;;;;;;;6.30;5.63;;;16.40;99.90;;;;;;5075157;28;20166;-71
2022/05/01 10:08:56;;;;;;;7.47;5.65;;;16.70;99.90;;;;;;5072816;28;20240;-70
2022/05/01 10:11:23;;;;;;;6.97;5.53;;;16.80;99.90;;;;;;5073837;28;20220;-71
2022/05/01 10:13:50;;;;;;;7.53;5.78;;;16.90;99.90;;;;;;5073896;28;20197;-70
2022/05/01 10:16:16;;;;;;;8.80;5.80;;;17.30;99.90;;;;;;5073898;28;20680;-70
2022/05/01 10:18:44;;;;;;;6.97;5.72;;;17.60;99.90;;;;;;5072391;28;20182;-70
2022/05/01 10:21:11;;;;;;;9.05;6.03;;;17.70;99.90;;;;;;5073841;28;20174;-70
2022/05/01 10:23:39;;;;;;;7.28;5.95;;;17.60;99.90;;;;;;5072500;28;20220;-70
2022/05/01 10:26:17;;;;;;;6.70;5.15;;;17.40;99.90;;;;;;5072489;28;20174;-70
2022/05/01 10:29:21;;;;;;;6.20;5.32;;;17.40;99.90;;;;;;5072450;28;20174;-70
2022/05/01 10:35:18;;;;;;;8.07;6.32;;;17.40;99.90;;;;;;5073310;28;20221;-70
2022/05/01 10:38:06;;;;;;;7.80;6.38;;;17.20;99.90;;;;;;5072180;28;20216;-71
2022/05/01 10:40:54;;;;;;;7.13;5.55;;;16.90;99.90;;;;;;5072281;28;20269;-70
2022/05/01 10:43:25;;;;;;;7.78;6.30;;;17.00;99.90;;;;;;5072279;28;20225;-70
2022/05/01 10:46:00;;;;;;;8.80;6.13;;;17.30;99.90;;;;;;5072266;28;20182;-70
2022/05/01 10:48:29;;;;;;;9.27;6.30;;;17.50;99.90;;;;;;5072013;28;20165;-70
2022/05/01 10:50:55;;;;;;;7.10;5.40;;;17.60;99.90;;;;;;5072235;28;20173;-70
2022/05/01 10:53:21;;;;;;;7.95;6.13;;;17.50;99.90;;;;;;5072138;28;20227;-70
2022/05/01 10:55:52;;;;;;;8.50;5.97;;;17.40;99.90;;;;;;5073236;28;20232;-70
2022/05/01 10:58:21;;;;;;;9.07;6.50;;;17.50;99.90;;;;;;5072252;28;20169;-70
2022/05/01 11:00:49;;;;;;;11.10;6.72;;;17.80;99.90;;;;;;5073386;28;20177;-70
2022/05/01 11:03:28;;;;;;;6.78;5.75;;;18.00;99.90;;;;;;5073193;28;20529;-71
2022/05/01 11:06:08;;;;;;;6.70;5.70;;;18.40;99.90;;;;;;5073555;28;20170;-70
2022/05/01 11:08:36;;;;;;;9.35;5.75;;;18.30;99.90;;;;;;5073421;28;20177;-70
2022/05/01 11:11:11;;;;;;;7.80;5.63;;;18.30;99.90;;;;;;5071980;28;20197;-70
2022/05/01 11:13:40;;;;;;;6.88;5.50;;;18.50;99.90;;;;;;5073407;28;20245;-70
2022/05/01 11:16:08;;;;;;;9.93;6.28;;;18.70;99.90;;;;;;5072141;28;20170;-70
2022/05/01 11:18:40;;;;;;;7.15;5.07;;;18.80;99.90;;;;;;5071701;28;20177;-70
2022/05/01 11:21:24;;;;;;;7.90;6.57;;;18.80;99.90;;;;;;5073695;28;20177;-70
2022/05/01 11:23:59;;;;;;;6.82;5.20;;;18.40;99.90;;;;;;5073244;28;20197;-70
2022/05/01 11:26:25;;;;;;;8.60;6.53;;;18.30;99.90;;;;;;5077299;28;20188;-70
2022/05/01 11:28:55;;;;;;;9.07;6.90;;;18.40;99.90;;;;;;5077224;28;20166;-71
2022/05/01 11:31:36;;;;;;;7.47;5.80;;;18.40;99.90;;;;;;5077468;28;20166;-71
2022/05/01 11:34:25;;;;;;;7.78;6.07;;;18.50;99.90;;;;;;5076651;28;20204;-70
2022/05/01 11:37:08;;;;;;;8.05;5.70;;;19.10;99.90;;;;;;5072915;28;20209;-70
2022/05/01 11:39:46;;;;;;;6.57;5.47;;;19.30;99.90;;;;;;5076066;28;20614;-71
2022/05/01 11:42:38;;;;;;;8.00;5.32;;;19.20;99.90;;;;;;5076699;28;20178;-70
2022/05/01 11:45:05;;;;;;;7.25;5.95;;;19.50;99.90;;;;;;5077233;28;20214;-70
2022/05/01 11:47:34;;;;;;;10.27;6.00;;;19.70;99.90;;;;;;5077381;28;20175;-71
2022/05/01 11:50:01;;;;;;;6.93;5.65;;;20.00;99.90;;;;;;5076549;28;20255;-70
2022/05/01 11:52:27;;;;;;;7.43;5.25;;;20.70;99.90;;;;;;5076729;28;20197;-71
2022/05/01 11:54:58;;;;;;;6.68;5.00;;;21.00;99.90;;;;;;5076327;28;20592;-71
2022/05/01 12:03:05;;;;;;;7.43;4.90;;;22.40;99.90;;;;;;5077662;28;20212;-72
2022/05/01 12:05:32;;;;;;;8.50;6.10;;;22.30;99.90;;;;;;5076425;28;20241;-73
2022/05/01 12:07:59;;;;;;;8.38;5.20;;;21.80;99.80;;;;;;5076759;28;20181;-73
2022/05/01 12:10:26;;;;;;;7.53;6.00;;;21.00;99.90;;;;;;5075151;28;20186;-74
2022/05/01 12:12:52;;;;;;;7.00;5.60;;;20.40;99.90;;;;;;5076964;28;20245;-75
2022/05/01 12:15:18;;;;;;;7.80;5.93;;;19.70;99.90;;;;;;5077138;28;20738;-75
2022/05/01 12:17:44;;;;;;;8.80;5.05;;;19.40;99.90;;;;;;5077433;28;20162;-75
2022/05/01 12:20:11;;;;;;;8.02;5.80;;;19.50;99.90;;;;;;5075433;28;20257;-74
2022/05/01 12:22:37;;;;;;;8.15;6.22;;;19.60;99.90;;;;;;5075783;28;20173;-75
2022/05/01 12:25:11;;;;;;;7.15;4.90;;;19.50;99.90;;;;;;5075532;28;20197;-75
2022/05/01 12:27:41;;;;;;;5.97;4.68;;;19.70;99.90;;;;;;5075583;28;20180;-74
2022/05/01 12:30:09;;;;;;;6.60;5.28;;;19.80;99.90;;;;;;5076555;28;20642;-75
2022/05/01 12:32:36;;;;;;;7.57;5.35;;;19.50;99.90;;;;;;5075281;28;20585;-75
2022/05/01 12:35:04;;;;;;;9.68;6.90;;;19.40;99.90;;;;;;5075979;28;20564;-74
2022/05/01 12:37:37;;;;;;;7.97;5.65;;;19.30;99.90;;;;;;5075765;28;20170;-75
2022/05/01 12:40:10;;;;;;;13.55;11.35;;;19.20;99.90;;;;;;5075631;28;20177;-75
2022/05/01 12:45:38;;;;;;;10.68;7.60;;;18.80;99.90;;;;;;5077807;28;20173;-74
2022/05/01 12:48:05;;;;;;;10.70;7.78;;;18.40;99.90;;;;;;5078332;28;20181;-66
2022/05/01 12:50:32;;;;;;;9.00;6.95;;;18.20;99.90;;;;;;5077084;28;20177;-72
2022/05/01 12:53:00;;;;;;;11.35;6.97;;;18.00;99.90;;;;;;5076869;28;20261;-72
2022/05/01 12:55:37;;;;;;;7.60;5.95;;;18.00;99.90;;;;;;5076582;28;20197;-73
2022/05/01 12:58:06;;;;;;;9.02;6.38;;;18.00;99.90;;;;;;5076143;28;20157;-73
2022/05/01 13:00:49;;;;;;;8.18;6.78;;;18.00;99.90;;;;;;5074773;28;20174;-74
2022/05/01 13:03:30;;;;;;;9.38;6.25;;;18.50;99.90;;;;;;5076367;28;20196;-72
2022/05/01 13:06:00;;;;;;;8.60;6.20;;;19.00;99.90;;;;;;5075783;28;20162;-72
2022/05/01 13:08:27;;;;;;;9.07;6.65;;;19.30;99.90;;;;;;5075727;28;20205;-72
2022/05/01 13:11:25;;;;;;;9.70;7.28;;;19.40;99.90;;;;;;5075534;28;20298;-72
2022/05/01 13:13:54;;;;;;;9.88;6.68;;;19.70;99.90;;;;;;5074132;28;20201;-72